sensor_id;sensor_type;location;lat;lon;timestamp;pressure;altitude;pressure_sealevel;temperature;humidity
8653;BME280;4364;52.426;9.424;2022-08-19T08:35:37;100921.66;;;20.44;64.70
8653;BME280;4364;52.426;9.424;2022-08-19T08:38:03;100919.25;;;20.43;64.67
8653;BME280;4364;52.426;9.424;2022-08-19T08:40:52;100917.91;;;20.70;63.20
8653;BME280;4364;52.426;9.424;2022-08-19T08:43:34;100924.97;;;20.92;62.31
8653;BME280;4364;52.426;9.424;2022-08-19T08:46:10;100929.81;;;20.95;61.20
8653;BME280;4364;52.426;9.424;2022-08-19T08:49:21;100928.38;;;21.10;60.52
8653;BME280;4364;52.426;9.424;2022-08-19T08:52:16;100917.88;;;21.16;60.19
8653;BME280;4364;52.426;9.424;2022-08-19T08:54:47;100921.69;;;21.23;60.48
8653;BME280;4364;52.426;9.424;2022-08-19T09:00:10;100915.00;;;21.12;59.04
8653;BME280;4364;52.426;9.424;2022-08-19T09:02:42;100906.81;;;21.16;59.09
8653;BME280;4364;52.426;9.424;2022-08-19T09:05:10;100918.78;;;21.20;59.16
8653;BME280;4364;52.426;9.424;2022-08-19T09:08:00;100913.38;;;21.11;58.39
8653;BME280;4364;52.426;9.424;2022-08-19T09:10:36;100922.63;;;21.27;59.00
8653;BME280;4364;52.426;9.424;2022-08-19T09:15:56;100919.44;;;21.50;55.83
8653;BME280;4364;52.426;9.424;2022-08-19T09:18:24;100920.34;;;21.42;57.03
8653;BME280;4364;52.426;9.424;2022-08-19T09:20:55;100912.50;;;21.69;57.03
8653;BME280;4364;52.426;9.424;2022-08-19T09:23:22;100911.69;;;21.80;56.88
8653;BME280;4364;52.426;9.424;2022-08-19T09:25:53;100927.69;;;21.99;55.21
8653;BME280;4364;52.426;9.424;2022-08-19T09:28:20;100914.63;;;22.12;55.30
8653;BME280;4364;52.426;9.424;2022-08-19T09:30:52;100928.47;;;22.12;55.92
8653;BME280;4364;52.426;9.424;2022-08-19T09:33:19;100920.94;;;22.13;55.80
8653;BME280;4364;52.426;9.424;2022-08-19T09:35:47;100921.34;;;21.99;56.10
8653;BME280;4364;52.426;9.424;2022-08-19T09:38:20;100910.28;;;21.99;55.54
8653;BME280;4364;52.426;9.424;2022-08-19T09:40:47;100899.56;;;22.26;55.04
8653;BME280;4364;52.426;9.424;2022-08-19T09:43:14;100901.97;;;22.68;53.87
8653;BME280;4364;52.426;9.424;2022-08-19T09:45:59;100904.81;;;22.55;52.78
8653;BME280;4364;52.426;9.424;2022-08-19T09:48:26;100899.03;;;22.48;52.95
8653;BME280;4364;52.426;9.424;2022-08-19T09:50:53;100915.63;;;22.61;53.15
8653;BME280;4364;52.426;9.424;2022-08-19T09:53:20;100916.50;;;22.65;52.26
8653;BME280;4364;52.426;9.424;2022-08-19T09:55:51;100913.47;;;22.70;52.12
8653;BME280;4364;52.426;9.424;2022-08-19T09:58:18;100919.44;;;23.00;49.95
8653;BME280;4364;52.426;9.424;2022-08-19T10:00:50;100914.16;;;22.95;50.92
8653;BME280;4364;52.426;9.424;2022-08-19T10:03:17;100907.75;;;22.63;50.73
8653;BME280;4364;52.426;9.424;2022-08-19T10:05:43;100907.66;;;22.59;51.81
8653;BME280;4364;52.426;9.424;2022-08-19T10:08:24;100907.81;;;22.50;52.55
8653;BME280;4364;52.426;9.424;2022-08-19T10:11:18;100915.13;;;22.43;52.10
8653;BME280;4364;52.426;9.424;2022-08-19T10:14:03;100906.50;;;22.32;52.21
8653;BME280;4364;52.426;9.424;2022-08-19T10:16:35;100911.44;;;22.38;52.14
8653;BME280;4364;52.426;9.424;2022-08-19T10:19:05;100894.88;;;22.54;51.73
8653;BME280;4364;52.426;9.424;2022-08-19T10:21:33;100900.47;;;22.42;50.61
8653;BME280;4364;52.426;9.424;2022-08-19T10:24:02;100910.78;;;22.57;49.27
8653;BME280;4364;52.426;9.424;2022-08-19T10:26:37;100906.41;;;22.56;50.18
8653;BME280;4364;52.426;9.424;2022-08-19T10:29:05;100908.78;;;22.70;49.70
8653;BME280;4364;52.426;9.424;2022-08-19T10:31:34;100909.25;;;22.60;50.18
8653;BME280;4364;52.426;9.424;2022-08-19T10:34:21;100901.06;;;22.64;49.53
8653;BME280;4364;52.426;9.424;2022-08-19T10:36:54;100910.00;;;22.73;49.76
8653;BME280;4364;52.426;9.424;2022-08-19T10:39:26;100899.28;;;22.71;50.25
8653;BME280;4364;52.426;9.424;2022-08-19T10:41:57;100890.03;;;22.51;50.33
8653;BME280;4364;52.426;9.424;2022-08-19T10:44:25;100883.78;;;22.54;50.75
8653;BME280;4364;52.426;9.424;2022-08-19T10:46:58;100892.00;;;22.51;49.86
8653;BME280;4364;52.426;9.424;2022-08-19T10:49:25;100881.38;;;22.53;49.14
8653;BME280;4364;52.426;9.424;2022-08-19T10:51:54;100874.34;;;22.71;49.22
8653;BME280;4364;52.426;9.424;2022-08-19T10:54:45;100864.25;;;22.95;49.09
8653;BME280;4364;52.426;9.424;2022-08-19T10:57:34;100862.94;;;23.21;49.01
8653;BME280;4364;52.426;9.424;2022-08-19T11:00:22;100858.53;;;23.04;49.69
8653;BME280;4364;52.426;9.424;2022-08-19T11:02:49;100863.19;;;23.31;49.99
8653;BME280;4364;52.426;9.424;2022-08-19T11:05:16;100859.03;;;23.57;48.83
8653;BME280;4364;52.426;9.424;2022-08-19T11:07:44;100853.13;;;23.78;48.55
8653;BME280;4364;52.426;9.424;2022-08-19T11:10:13;100849.88;;;23.92;46.88
8653;BME280;4364;52.426;9.424;2022-08-19T11:12:46;100840.41;;;23.93;45.56
8653;BME280;4364;52.426;9.424;2022-08-19T11:15:13;100851.94;;;23.95;44.98
8653;BME280;4364;52.426;9.424;2022-08-19T11:17:40;100853.06;;;23.75;45.18
8653;BME280;4364;52.426;9.424;2022-08-19T11:20:08;100845.66;;;23.98;45.40
8653;BME280;4364;52.426;9.424;2022-08-19T11:22:35;100839.22;;;24.33;45.24
8653;BME280;4364;52.426;9.424;2022-08-19T11:25:08;100836.66;;;24.44;44.48
8653;BME280;4364;52.426;9.424;2022-08-19T11:27:41;100844.16;;;24.63;44.99
8653;BME280;4364;52.426;9.424;2022-08-19T11:30:11;100841.81;;;24.65;44.58
8653;BME280;4364;52.426;9.424;2022-08-19T11:32:42;100848.91;;;24.86;44.49
8653;BME280;4364;52.426;9.424;2022-08-19T11:35:14;100836.94;;;25.05;44.50
8653;BME280;4364;52.426;9.424;2022-08-19T11:37:42;100826.16;;;25.26;43.92
8653;BME280;4364;52.426;9.424;2022-08-19T11:40:09;100838.09;;;25.27;44.26
8653;BME280;4364;52.426;9.424;2022-08-19T11:42:36;100828.41;;;25.21;42.82
8653;BME280;4364;52.426;9.424;2022-08-19T11:45:22;100827.84;;;25.31;42.73
8653;BME280;4364;52.426;9.424;2022-08-19T11:47:49;100810.16;;;25.46;42.60
8653;BME280;4364;52.426;9.424;2022-08-19T11:50:16;100811.72;;;25.74;42.43
8653;BME280;4364;52.426;9.424;2022-08-19T11:52:43;100807.13;;;25.59;41.57
8653;BME280;4364;52.426;9.424;2022-08-19T11:55:13;100809.66;;;25.41;42.13
8653;BME280;4364;52.426;9.424;2022-08-19T11:57:40;100814.84;;;25.42;42.05
8653;BME280;4364;52.426;9.424;2022-08-19T12:00:10;100812.06;;;25.42;42.16
8653;BME280;4364;52.426;9.424;2022-08-19T12:02:39;100807.94;;;25.59;42.06
8653;BME280;4364;52.426;9.424;2022-08-19T12:05:06;100807.19;;;25.62;42.18
8653;BME280;4364;52.426;9.424;2022-08-19T12:07:39;100806.50;;;25.73;41.89
8653;BME280;4364;52.426;9.424;2022-08-19T12:10:07;100806.88;;;25.98;41.41
8653;BME280;4364;52.426;9.424;2022-08-19T12:12:34;100815.13;;;25.94;40.93
8653;BME280;4364;52.426;9.424;2022-08-19T12:15:01;100808.63;;;26.13;40.85
8653;BME280;4364;52.426;9.424;2022-08-19T12:17:28;100803.78;;;26.06;40.49
8653;BME280;4364;52.426;9.424;2022-08-19T12:19:55;100808.69;;;26.17;39.53
8653;BME280;4364;52.426;9.424;2022-08-19T12:22:22;100805.84;;;26.13;38.72
8653;BME280;4364;52.426;9.424;2022-08-19T12:24:49;100803.72;;;26.37;38.63
8653;BME280;4364;52.426;9.424;2022-08-19T12:27:17;100802.31;;;26.57;38.59
8653;BME280;4364;52.426;9.424;2022-08-19T12:30:06;100808.22;;;26.49;37.36
8653;BME280;4364;52.426;9.424;2022-08-19T12:32:34;100798.22;;;26.48;37.82
8653;BME280;4364;52.426;9.424;2022-08-19T12:35:01;100786.78;;;26.56;37.38
8653;BME280;4364;52.426;9.424;2022-08-19T12:37:27;100786.91;;;26.71;37.02
8653;BME280;4364;52.426;9.424;2022-08-19T12:39:54;100780.16;;;26.72;36.47
8653;BME280;4364;52.426;9.424;2022-08-19T12:42:21;100778.94;;;26.69;35.77
8653;BME280;4364;52.426;9.424;2022-08-19T12:44:49;100770.31;;;26.85;35.96
8653;BME280;4364;52.426;9.424;2022-08-19T12:47:18;100766.06;;;27.06;36.11
8653;BME280;4364;52.426;9.424;2022-08-19T12:49:45;100762.47;;;27.05;35.23
8653;BME280;4364;52.426;9.424;2022-08-19T12:52:25;100761.41;;;27.28;34.33
8653;BME280;4364;52.426;9.424;2022-08-19T12:54:53;100760.69;;;27.34;35.07
8653;BME280;4364;52.426;9.424;2022-08-19T12:57:25;100767.44;;;27.30;34.60
8653;BME280;4364;52.426;9.424;2022-08-19T13:00:04;100767.59;;;27.62;34.08
8653;BME280;4364;52.426;9.424;2022-08-19T13:02:34;100778.84;;;27.77;33.41
8653;BME280;4364;52.426;9.424;2022-08-19T13:05:06;100776.44;;;27.75;33.70
8653;BME280;4364;52.426;9.424;2022-08-19T13:07:34;100776.06;;;27.80;33.47
8653;BME280;4364;52.426;9.424;2022-08-19T13:10:01;100780.81;;;27.80;33.62
8653;BME280;4364;52.426;9.424;2022-08-19T13:12:27;100782.84;;;27.83;33.44
8653;BME280;4364;52.426;9.424;2022-08-19T13:14:55;100763.75;;;27.99;33.27
8653;BME280;4364;52.426;9.424;2022-08-19T13:17:22;100780.41;;;27.70;33.24
8653;BME280;4364;52.426;9.424;2022-08-19T13:19:49;100767.13;;;27.49;33.41
8653;BME280;4364;52.426;9.424;2022-08-19T13:22:17;100774.81;;;27.67;33.40
8653;BME280;4364;52.426;9.424;2022-08-19T13:24:44;100764.56;;;27.96;33.57
8653;BME280;4364;52.426;9.424;2022-08-19T13:27:13;100767.78;;;28.09;32.24
8653;BME280;4364;52.426;9.424;2022-08-19T13:29:43;100752.19;;;28.08;32.33
8653;BME280;4364;52.426;9.424;2022-08-19T13:32:31;100749.00;;;28.09;32.18
8653;BME280;4364;52.426;9.424;2022-08-19T13:35:16;100756.94;;;27.93;32.51
8653;BME280;4364;52.426;9.424;2022-08-19T13:37:43;100761.75;;;27.93;32.63
8653;BME280;4364;52.426;9.424;2022-08-19T13:40:15;100761.63;;;27.60;32.84
8653;BME280;4364;52.426;9.424;2022-08-19T13:42:46;100760.06;;;27.73;32.54
8653;BME280;4364;52.426;9.424;2022-08-19T13:45:16;100744.19;;;27.99;32.74
8653;BME280;4364;52.426;9.424;2022-08-19T13:47:48;100743.41;;;28.09;31.93
8653;BME280;4364;52.426;9.424;2022-08-19T13:50:21;100738.66;;;28.21;31.79
8653;BME280;4364;52.426;9.424;2022-08-19T13:52:55;100739.44;;;28.03;31.64
8653;BME280;4364;52.426;9.424;2022-08-19T13:55:23;100750.22;;;28.16;32.21
8653;BME280;4364;52.426;9.424;2022-08-19T13:57:52;100755.00;;;28.01;32.02
8653;BME280;4364;52.426;9.424;2022-08-19T14:00:21;100742.25;;;28.18;32.02
8653;BME280;4364;52.426;9.424;2022-08-19T14:02:51;100743.81;;;28.04;31.81
8653;BME280;4364;52.426;9.424;2022-08-19T14:05:19;100746.56;;;27.90;31.91
8653;BME280;4364;52.426;9.424;2022-08-19T14:07:46;100743.81;;;27.97;31.98
8653;BME280;4364;52.426;9.424;2022-08-19T14:10:15;100743.81;;;27.94;31.91
8653;BME280;4364;52.426;9.424;2022-08-19T14:12:42;100742.94;;;27.86;32.24
8653;BME280;4364;52.426;9.424;2022-08-19T14:15:10;100746.25;;;28.17;31.66
8653;BME280;4364;52.426;9.424;2022-08-19T14:17:41;100743.81;;;28.04;32.17
8653;BME280;4364;52.426;9.424;2022-08-19T14:20:09;100752.63;;;28.10;32.33
8653;BME280;4364;52.426;9.424;2022-08-19T14:22:44;100747.84;;;28.11;32.26
8653;BME280;4364;52.426;9.424;2022-08-19T14:25:13;100752.63;;;28.10;31.82
8653;BME280;4364;52.426;9.424;2022-08-19T14:27:42;100745.72;;;27.86;31.92
8653;BME280;4364;52.426;9.424;2022-08-19T14:30:11;100747.69;;;27.71;32.23
8653;BME280;4364;52.426;9.424;2022-08-19T14:32:39;100740.63;;;27.99;31.94
8653;BME280;4364;52.426;9.424;2022-08-19T14:35:06;100747.81;;;28.07;31.16
8653;BME280;4364;52.426;9.424;2022-08-19T14:37:36;100738.25;;;28.19;30.63
8653;BME280;4364;52.426;9.424;2022-08-19T14:40:13;100748.25;;;28.23;31.23
8653;BME280;4364;52.426;9.424;2022-08-19T14:42:41;100748.59;;;28.00;31.19
8653;BME280;4364;52.426;9.424;2022-08-19T14:45:09;100744.56;;;27.87;31.12
8653;BME280;4364;52.426;9.424;2022-08-19T14:47:36;100742.63;;;28.02;31.01
8653;BME280;4364;52.426;9.424;2022-08-19T14:50:10;100745.41;;;28.02;30.89
8653;BME280;4364;52.426;9.424;2022-08-19T14:52:44;100742.25;;;28.14;30.99
8653;BME280;4364;52.426;9.424;2022-08-19T14:55:11;100746.25;;;28.24;31.68
8653;BME280;4364;52.426;9.424;2022-08-19T14:57:37;100747.44;;;28.26;31.53
8653;BME280;4364;52.426;9.424;2022-08-19T15:00:04;100751.06;;;28.27;31.20
8653;BME280;4364;52.426;9.424;2022-08-19T15:02:31;100747.44;;;28.23;31.29
8653;BME280;4364;52.426;9.424;2022-08-19T15:05:01;100750.63;;;28.11;31.51
8653;BME280;4364;52.426;9.424;2022-08-19T15:07:28;100754.22;;;28.11;31.40
8653;BME280;4364;52.426;9.424;2022-08-19T15:09:56;100751.81;;;28.09;31.71
8653;BME280;4364;52.426;9.424;2022-08-19T15:12:23;100748.56;;;27.93;32.00
8653;BME280;4364;52.426;9.424;2022-08-19T15:14:50;100751.78;;;27.95;32.43
8653;BME280;4364;52.426;9.424;2022-08-19T15:17:21;100756.59;;;28.13;32.15
8653;BME280;4364;52.426;9.424;2022-08-19T15:20:10;100757.78;;;27.97;31.35
8653;BME280;4364;52.426;9.424;2022-08-19T15:22:37;100755.34;;;27.88;31.94
8653;BME280;4364;52.426;9.424;2022-08-19T15:25:06;100753.31;;;27.85;32.00
8653;BME280;4364;52.426;9.424;2022-08-19T15:27:33;100754.59;;;28.02;31.97
8653;BME280;4364;52.426;9.424;2022-08-19T15:30:03;100753.00;;;28.05;31.80
8653;BME280;4364;52.426;9.424;2022-08-19T15:32:29;100751.81;;;28.02;31.67
8653;BME280;4364;52.426;9.424;2022-08-19T15:34:59;100755.72;;;27.90;31.79
8653;BME280;4364;52.426;9.424;2022-08-19T15:37:29;100754.97;;;27.97;31.85
8653;BME280;4364;52.426;9.424;2022-08-19T15:39:56;100758.19;;;28.03;31.52
8653;BME280;4364;52.426;9.424;2022-08-19T15:42:24;100760.19;;;28.09;31.01
8653;BME280;4364;52.426;9.424;2022-08-19T15:44:56;100758.22;;;28.17;31.07
8653;BME280;4364;52.426;9.424;2022-08-19T15:47:30;100769.00;;;28.15;30.79
8653;BME280;4364;52.426;9.424;2022-08-19T15:50:09;100767.00;;;28.08;30.56
8653;BME280;4364;52.426;9.424;2022-08-19T15:52:44;100755.38;;;27.96;30.90
8653;BME280;4364;52.426;9.424;2022-08-19T15:55:17;100754.94;;;27.90;30.94
8653;BME280;4364;52.426;9.424;2022-08-19T15:58:07;100764.50;;;27.82;31.60
8653;BME280;4364;52.426;9.424;2022-08-19T16:01:06;100757.69;;;27.86;31.43
8653;BME280;4364;52.426;9.424;2022-08-19T16:03:54;100757.69;;;27.83;31.43
8653;BME280;4364;52.426;9.424;2022-08-19T16:06:48;100769.63;;;27.65;31.70
8653;BME280;4364;52.426;9.424;2022-08-19T16:09:16;100768.03;;;27.71;31.67
8653;BME280;4364;52.426;9.424;2022-08-19T16:11:49;100772.44;;;27.76;31.85
8653;BME280;4364;52.426;9.424;2022-08-19T16:14:23;100770.75;;;27.53;31.75
8653;BME280;4364;52.426;9.424;2022-08-19T16:16:51;100770.31;;;27.44;31.78
8653;BME280;4364;52.426;9.424;2022-08-19T16:19:19;100773.94;;;27.52;31.97
8653;BME280;4364;52.426;9.424;2022-08-19T16:21:51;100771.97;;;27.60;31.52
8653;BME280;4364;52.426;9.424;2022-08-19T16:24:21;100759.16;;;27.48;31.74
8653;BME280;4364;52.426;9.424;2022-08-19T16:26:48;100762.78;;;27.56;31.45
8653;BME280;4364;52.426;9.424;2022-08-19T16:29:17;100749.97;;;27.44;31.69
8653;BME280;4364;52.426;9.424;2022-08-19T16:32:02;100751.13;;;27.35;32.37
8653;BME280;4364;52.426;9.424;2022-08-19T16:34:29;100751.06;;;27.28;32.16
8653;BME280;4364;52.426;9.424;2022-08-19T16:36:56;100748.19;;;27.14;32.70
8653;BME280;4364;52.426;9.424;2022-08-19T16:39:23;100752.16;;;27.13;33.05
8653;BME280;4364;52.426;9.424;2022-08-19T16:41:49;100747.03;;;27.22;32.55
8653;BME280;4364;52.426;9.424;2022-08-19T16:44:17;100743.75;;;27.09;33.18
8653;BME280;4364;52.426;9.424;2022-08-19T16:46:46;100749.78;;;27.15;33.15
8653;BME280;4364;52.426;9.424;2022-08-19T16:49:26;100747.38;;;27.13;33.28
8653;BME280;4364;52.426;9.424;2022-08-19T16:52:12;100743.75;;;27.09;33.04
8653;BME280;4364;52.426;9.424;2022-08-19T16:54:41;100745.78;;;27.12;33.29
8653;BME280;4364;52.426;9.424;2022-08-19T16:57:09;100748.13;;;27.07;33.15
8653;BME280;4364;52.426;9.424;2022-08-19T16:59:37;100740.09;;;26.98;33.25
8653;BME280;4364;52.426;9.424;2022-08-19T17:02:39;100742.56;;;27.07;33.02
8653;BME280;4364;52.426;9.424;2022-08-19T17:05:07;100742.56;;;27.10;32.82
8653;BME280;4364;52.426;9.424;2022-08-19T17:07:34;100745.34;;;27.07;32.97
8653;BME280;4364;52.426;9.424;2022-08-19T17:10:03;100744.16;;;27.08;32.51
8653;BME280;4364;52.426;9.424;2022-08-19T17:12:30;100746.13;;;27.04;32.65
8653;BME280;4364;52.426;9.424;2022-08-19T17:15:01;100740.09;;;26.98;32.70
8653;BME280;4364;52.426;9.424;2022-08-19T17:17:29;100740.91;;;26.95;32.67
8653;BME280;4364;52.426;9.424;2022-08-19T17:19:57;100742.84;;;26.91;32.52
8653;BME280;4364;52.426;9.424;2022-08-19T17:22:25;100747.16;;;26.85;32.50
8653;BME280;4364;52.426;9.424;2022-08-19T17:24:52;100744.34;;;26.77;32.80
8653;BME280;4364;52.426;9.424;2022-08-19T17:27:25;100746.69;;;26.68;32.95
8653;BME280;4364;52.426;9.424;2022-08-19T17:29:56;100746.63;;;26.65;32.76
8653;BME280;4364;52.426;9.424;2022-08-19T17:32:25;100747.38;;;26.61;33.16
8653;BME280;4364;52.426;9.424;2022-08-19T17:34:52;100750.94;;;26.58;32.97
8653;BME280;4364;52.426;9.424;2022-08-19T17:37:22;100749.22;;;26.43;33.39
8653;BME280;4364;52.426;9.424;2022-08-19T17:39:49;100740.38;;;26.34;33.52
8653;BME280;4364;52.426;9.424;2022-08-19T17:42:15;100736.69;;;26.26;33.85
8653;BME280;4364;52.426;9.424;2022-08-19T17:44:42;100733.78;;;26.12;34.30
8653;BME280;4364;52.426;9.424;2022-08-19T17:47:19;100729.75;;;26.05;34.00
8653;BME280;4364;52.426;9.424;2022-08-19T17:49:46;100724.00;;;25.91;34.54
8653;BME280;4364;52.426;9.424;2022-08-19T17:52:13;100719.16;;;25.84;35.25
8653;BME280;4364;52.426;9.424;2022-08-19T17:54:40;100714.31;;;25.78;35.19
8653;BME280;4364;52.426;9.424;2022-08-19T17:57:07;100716.53;;;25.65;36.16
8653;BME280;4364;52.426;9.424;2022-08-19T17:59:34;100708.91;;;25.58;35.67
8653;BME280;4364;52.426;9.424;2022-08-19T18:02:04;100713.94;;;25.49;35.93
8653;BME280;4364;52.426;9.424;2022-08-19T18:04:30;100715.00;;;25.37;36.10
8653;BME280;4364;52.426;9.424;2022-08-19T18:06:57;100722.88;;;25.31;36.43
8653;BME280;4364;52.426;9.424;2022-08-19T18:09:27;100727.03;;;25.18;36.49
8653;BME280;4364;52.426;9.424;2022-08-19T18:12:09;100728.06;;;25.06;37.05
8653;BME280;4364;52.426;9.424;2022-08-19T18:14:37;100735.88;;;24.97;37.32
8653;BME280;4364;52.426;9.424;2022-08-19T18:17:11;100741.72;;;24.88;37.44
8653;BME280;4364;52.426;9.424;2022-08-19T18:19:39;100744.75;;;24.80;37.33
8653;BME280;4364;52.426;9.424;2022-08-19T18:22:35;100739.06;;;24.72;37.87
8653;BME280;4364;52.426;9.424;2022-08-19T18:25:13;100737.28;;;24.60;37.87
8653;BME280;4364;52.426;9.424;2022-08-19T18:27:44;100731.69;;;24.57;38.07
8653;BME280;4364;52.426;9.424;2022-08-19T18:30:11;100734.19;;;24.42;38.41
8653;BME280;4364;52.426;9.424;2022-08-19T18:32:40;100734.88;;;24.36;38.78
8653;BME280;4364;52.426;9.424;2022-08-19T18:35:10;100736.72;;;24.28;38.93
8653;BME280;4364;52.426;9.424;2022-08-19T18:37:39;100740.97;;;24.22;39.08
8653;BME280;4364;52.426;9.424;2022-08-19T18:40:09;100736.03;;;24.12;39.88
8653;BME280;4364;52.426;9.424;2022-08-19T18:42:55;100740.34;;;24.09;39.49
8653;BME280;4364;52.426;9.424;2022-08-19T18:45:37;100745.63;;;23.95;39.78
8653;BME280;4364;52.426;9.424;2022-08-19T18:48:23;100746.28;;;23.88;39.78
8653;BME280;4364;52.426;9.424;2022-08-19T18:51:10;100746.13;;;23.81;40.05
8653;BME280;4364;52.426;9.424;2022-08-19T18:53:38;100752.41;;;23.78;39.82
8653;BME280;4364;52.426;9.424;2022-08-19T18:56:08;100763.81;;;23.73;40.02
8653;BME280;4364;52.426;9.424;2022-08-19T18:58:36;100767.81;;;23.56;40.28
8653;BME280;4364;52.426;9.424;2022-08-19T19:01:20;100765.41;;;23.54;40.32
8653;BME280;4364;52.426;9.424;2022-08-19T19:03:50;100765.88;;;23.40;40.82
8653;BME280;4364;52.426;9.424;2022-08-19T19:06:25;100758.66;;;23.36;40.97
8653;BME280;4364;52.426;9.424;2022-08-19T19:08:56;100763.69;;;23.30;41.44
8653;BME280;4364;52.426;9.424;2022-08-19T19:11:33;100775.41;;;23.23;41.73
8653;BME280;4364;52.426;9.424;2022-08-19T19:14:01;100776.06;;;23.17;41.95
8653;BME280;4364;52.426;9.424;2022-08-19T19:16:29;100784.56;;;23.08;42.20
8653;BME280;4364;52.426;9.424;2022-08-19T19:18:58;100787.88;;;22.98;42.37
8653;BME280;4364;52.426;9.424;2022-08-19T19:21:25;100794.06;;;22.91;42.93
8653;BME280;4364;52.426;9.424;2022-08-19T19:23:55;100791.34;;;22.79;43.31
8653;BME280;4364;52.426;9.424;2022-08-19T19:26:22;100797.91;;;22.70;43.41
8653;BME280;4364;52.426;9.424;2022-08-19T19:28:49;100808.00;;;22.63;43.51
8653;BME280;4364;52.426;9.424;2022-08-19T19:31:22;100801.81;;;22.53;43.70
8653;BME280;4364;52.426;9.424;2022-08-19T19:33:53;100802.97;;;22.52;43.89
8653;BME280;4364;52.426;9.424;2022-08-19T19:36:22;100807.59;;;22.48;44.20
8653;BME280;4364;52.426;9.424;2022-08-19T19:38:50;100804.66;;;22.41;44.47
8653;BME280;4364;52.426;9.424;2022-08-19T19:41:20;100805.72;;;22.36;44.78
8653;BME280;4364;52.426;9.424;2022-08-19T19:43:51;100813.50;;;22.31;44.55
8653;BME280;4364;52.426;9.424;2022-08-19T19:46:40;100819.97;;;22.23;44.92
8653;BME280;4364;52.426;9.424;2022-08-19T19:49:10;100822.19;;;22.17;45.61
8653;BME280;4364;52.426;9.424;2022-08-19T19:51:38;100825.56;;;22.10;45.94
8653;BME280;4364;52.426;9.424;2022-08-19T19:54:07;100829.81;;;22.08;46.46
8653;BME280;4364;52.426;9.424;2022-08-19T19:56:34;100836.16;;;22.08;46.61
8653;BME280;4364;52.426;9.424;2022-08-19T19:59:01;100837.69;;;22.06;46.77
8653;BME280;4364;52.426;9.424;2022-08-19T20:01:29;100836.41;;;22.03;46.50
8653;BME280;4364;52.426;9.424;2022-08-19T20:03:55;100839.00;;;21.96;47.08
8653;BME280;4364;52.426;9.424;2022-08-19T20:06:27;100836.38;;;21.87;47.43
8653;BME280;4364;52.426;9.424;2022-08-19T20:08:56;100842.03;;;21.78;47.52
8653;BME280;4364;52.426;9.424;2022-08-19T20:11:53;100847.00;;;21.73;47.76
8653;BME280;4364;52.426;9.424;2022-08-19T20:14:33;100855.53;;;21.68;48.07
8653;BME280;4364;52.426;9.424;2022-08-19T20:17:04;100846.09;;;21.69;48.21
8653;BME280;4364;52.426;9.424;2022-08-19T20:19:31;100846.34;;;21.63;48.29
8653;BME280;4364;52.426;9.424;2022-08-19T20:22:04;100845.16;;;21.64;48.62
8653;BME280;4364;52.426;9.424;2022-08-19T20:24:33;100844.38;;;21.64;48.66
8653;BME280;4364;52.426;9.424;2022-08-19T20:27:02;100843.69;;;21.67;48.88
8653;BME280;4364;52.426;9.424;2022-08-19T20:29:29;100851.28;;;21.70;48.89
8653;BME280;4364;52.426;9.424;2022-08-19T20:32:06;100844.38;;;21.64;49.43
8653;BME280;4364;52.426;9.424;2022-08-19T20:34:32;100850.25;;;21.62;49.26
8653;BME280;4364;52.426;9.424;2022-08-19T20:36:59;100847.84;;;21.61;49.33
8653;BME280;4364;52.426;9.424;2022-08-19T20:39:26;100851.63;;;21.56;49.44
8653;BME280;4364;52.426;9.424;2022-08-19T20:41:52;100860.63;;;21.53;49.77
8653;BME280;4364;52.426;9.424;2022-08-19T20:44:22;100871.59;;;21.50;49.68
8653;BME280;4364;52.426;9.424;2022-08-19T20:46:52;100861.19;;;21.46;50.32
8653;BME280;4364;52.426;9.424;2022-08-19T20:49:25;100864.19;;;21.41;50.77
8653;BME280;4364;52.426;9.424;2022-08-19T20:51:54;100864.06;;;21.38;50.85
8653;BME280;4364;52.426;9.424;2022-08-19T20:54:21;100865.94;;;21.34;50.87
8653;BME280;4364;52.426;9.424;2022-08-19T20:56:48;100865.69;;;21.26;50.87
8653;BME280;4364;52.426;9.424;2022-08-19T20:59:15;100868.09;;;21.16;51.41
8653;BME280;4364;52.426;9.424;2022-08-19T21:01:42;100871.00;;;21.07;51.90
8653;BME280;4364;52.426;9.424;2022-08-19T21:04:08;100864.19;;;20.92;52.31
8653;BME280;4364;52.426;9.424;2022-08-19T21:06:35;100877.38;;;20.86;52.30
8653;BME280;4364;52.426;9.424;2022-08-19T21:09:03;100877.50;;;20.78;52.79
8653;BME280;4364;52.426;9.424;2022-08-19T21:11:30;100879.00;;;20.75;52.78
8653;BME280;4364;52.426;9.424;2022-08-19T21:13:58;100876.78;;;20.68;52.99
8653;BME280;4364;52.426;9.424;2022-08-19T21:16:25;100877.47;;;20.65;53.52
8653;BME280;4364;52.426;9.424;2022-08-19T21:18:54;100876.19;;;20.63;52.74
8653;BME280;4364;52.426;9.424;2022-08-19T21:21:21;100876.84;;;20.60;53.09
8653;BME280;4364;52.426;9.424;2022-08-19T21:23:48;100879.56;;;20.47;53.08
8653;BME280;4364;52.426;9.424;2022-08-19T21:26:18;100876.28;;;20.33;53.43
8653;BME280;4364;52.426;9.424;2022-08-19T21:28:45;100869.84;;;20.29;53.49
8653;BME280;4364;52.426;9.424;2022-08-19T21:31:11;100875.81;;;20.31;53.50
8653;BME280;4364;52.426;9.424;2022-08-19T21:33:40;100871.25;;;20.35;52.93
8653;BME280;4364;52.426;9.424;2022-08-19T21:36:07;100877.78;;;20.30;53.57
8653;BME280;4364;52.426;9.424;2022-08-19T21:38:34;100879.25;;;20.28;53.42
8653;BME280;4364;52.426;9.424;2022-08-19T21:41:03;100870.50;;;20.26;54.20
8653;BME280;4364;52.426;9.424;2022-08-19T21:43:32;100868.53;;;20.26;53.79
8653;BME280;4364;52.426;9.424;2022-08-19T21:45:59;100858.53;;;20.22;54.26
8653;BME280;4364;52.426;9.424;2022-08-19T21:48:26;100865.66;;;20.23;54.11
8653;BME280;4364;52.426;9.424;2022-08-19T21:50:53;100870.84;;;20.24;53.97
8653;BME280;4364;52.426;9.424;2022-08-19T21:53:20;100871.66;;;20.25;53.84
8653;BME280;4364;52.426;9.424;2022-08-19T21:55:49;100875.09;;;20.22;54.26
8653;BME280;4364;52.426;9.424;2022-08-19T21:58:20;100872.13;;;20.27;54.13
8653;BME280;4364;52.426;9.424;2022-08-19T22:01:03;100874.28;;;20.21;54.14
8653;BME280;4364;52.426;9.424;2022-08-19T22:03:33;100880.66;;;20.13;54.67
8653;BME280;4364;52.426;9.424;2022-08-19T22:05:59;100881.41;;;20.01;55.42
8653;BME280;4364;52.426;9.424;2022-08-19T22:08:26;100885.53;;;19.95;55.42
8653;BME280;4364;52.426;9.424;2022-08-19T22:10:53;100881.38;;;19.89;55.31